AirNav   ProFlight Series 2 Aviation Headset
 
 1076 users online  

FL71 Pennington Heliport
DeFuniak Springs, Florida, USA

GOING TO DEFUNIAK SPRINGS?


FAA INFORMATION EFFECTIVE 13 AUGUST 2020

Location

FAA Identifier: FL71
Lat/Long: 30-22-24.0700N 086-10-44.6200W
30-22.401167N 086-10.743667W
30.3733528,-86.1790611
(estimated)
Elevation: 40 ft. / 12 m (estimated)
Variation: 02W (2000)
From city: 25 miles N of DE FUNIAK SPRINGS, FL
Time zone: UTC -5 (UTC -6 during Standard Time)
Zip code: 32459

Heliport Operations

Heliport use: Private use. Permission required prior to landing
Activation date: 02/2001
Control tower: no
ARTCC: JACKSONVILLE CENTER
FSS: GAINESVILLE FLIGHT SERVICE STATION
Attendance: CONTINUOUS
Wind indicator: yes
Segmented circle: no

Heliport Communications

WX ASOS at DTS (15 nm W): PHONE 850-654-7128
WX ASOS at ECP (20 nm E): 119.975 (850-235-7857)

Nearby radio navigation aids

VOR radial/distance  VOR name  Freq  Var
CEWr133/37.5CRESTVIEW VORTAC115.9003E

 
NDB name  Hdg/Dist  Freq  Var  ID
LYNNE282/20.727804WPFN .--. ..-. -.

Heliport Services

Runway Information

Helipad H1

Dimensions: 100 x 100 ft. / 30 x 30 m
Surface: concrete
Latitude: 30-22.401167N
Longitude: 086-10.743667W
Elevation: 40.0 ft.
Traffic pattern: leftleft

Heliport Ownership and Management from official FAA records

Ownership: Privately-owned
Owner: WALTON COUNTY SHERIFF'S OFFICE
752 TRIPLE G RD
DE FUNIAK SPRINGS, FL 32433
Phone 850-892-8186
Manager: WILEY WILLOUGHBY
25221 HWY 331 SOUTH
SANTA ROSA BEACH, FL 32459
Phone 850-892-8111

Heliport Operational Statistics

Aircraft based on the field: 1
Helicopters: 1
    

Additional Remarks

FOR CD CTC TYNDALL APCH AT 850-283-2900 OR 850-283-3353, WHEN APCH CLSD CTC JACKSONVILLE ARTCC AT 904-845-1592.

Instrument Procedures

There are no published instrument procedures at FL71.

Some nearby airports with instrument procedures:

KDTS - Destin Executive Airport (15 nm W)
KVPS - Eglin Air Force Base/Destin-Fort Walton Beach Airport (19 nm W)
KECP - Northwest Florida Beaches International Airport (20 nm E)
54J - DeFuniak Springs Airport (22 nm N)
KEGI - Duke Field (Eglin AF Aux Nr 3) Airport (24 nm NW)
 
Loc | Ops | Rwys | IFR | FBO | Links
Com | Nav | Svcs | Stats | Notes

Continental Services
AirBoss

 
Area around FL71 (Pennington Heliport)
 
Road maps at: MapQuest Bing Google
 
Aerial photo
No photo
 
Sectional chart

 
Airport distance calculator
Flying to Pennington Heliport? Find the distance to fly.

From to FL71

Sunrise and sunset
Times for 15-Aug-2020
 Local
(UTC-5)
 Zulu
(UTC)
Morning civil twilight05:4810:48
Sunrise06:1311:13
Sunset19:2500:25
Evening civil twilight19:5000:50

Current date and time
Zulu (UTC)  15-Aug-2020 13:49:25
Local (UTC-5)  15-Aug-2020 08:49:25
 
METAR
KDTS 
15nm W 
151253Z VRB04KT 10SM CLR 28/22 A2994 RMK AO2 LTG DSNT SE AND S SLP138 T02780222
KVPS 
18nm W 
151256Z AUTO 28006KT 10SM CLR 26/22 A2993 RMK AO2 LTG DSNT SE SLP141 T02580223 $
KECP 
20nm E 
151253Z 34003KT 10SM SCT034 SCT047 26/25 A2994 RMK AO2 LTG DSNT SW SLP148 T02610250
K54J 
22nm N 
151335Z AUTO 33008KT 10SM SCT019 27/22 A2995 RMK AO2 LTG DSNT S T02700223
KEGI 
23nm NW 
151256Z AUTO 31005KT 10SM VCTS FEW140 FEW190 24/ A2993 RMK AO2 RAE21 SLP134 P0003 $
KHRT 
25nm W 
151256Z 27007G15KT 10SM SCT035 SCT160 BKN190 26/22 A2993 RMK AO2A SLP137 T02610223 $
KCEW 
29nm NW 
151253Z AUTO 31005KT 10SM FEW006 FEW018 25/23 A2995 RMK AO2 RAE10 SLP140 P0001 T02500228
TAF
KVPS 
18nm W 
150900Z 1509/1615 30009KT 9999 VCSH BKN100 BKN160 QNH2990INS BECMG 1511/1512 27010G15KT 9000 -SHRA SCT020 BKN110 BKN250 QNH2994INS TEMPO 1511/1514 22015G20KT 6000 -TSRA BKN020CB BECMG 1515/1516 28009KT 9999 NSW SCT025 BKN150 BKN250 QNH2992INS TEMPO 1519/1523 23010G15KT 9999 VCTS BKN025CB BECMG 1523/1524 26009KT 9999 FEW025 FEW040 SCT250 QNH2989INS TX31/1520Z TN23/1511Z
KECP 
20nm E 
151120Z 1512/1612 24005KT P6SM BKN250 FM151500 23010KT P6SM OVC050 TEMPO 1515/1518 P6SM TSRA BKN050CB FM151800 22007KT P6SM OVC100 TEMPO 1518/1521 P6SM TSRA BKN050CB FM160000 22005KT P6SM BKN250
NOTAMs
Click for the latest NOTAMs
NOTAMs are issued by the DoD/FAA and will open in a separate window not controlled by AirNav.

 

 
 

Would you like to see your business listed on this page?

 If your business provides an interesting product or service to pilots, flight crews, aircraft, or users of the Pennington Heliport, you should consider listing it here.  To start the listing process, click on the button below
 
Add a business
 

Other Pages about Pennington Heliport

Update a link
 
Copyright © AirNav, LLC. All rights reserved. Privacy Policy  Contact